Fort Qu'Appelle, Canada
Current Conditions -  °F | °C
As of 5:00 PM on Friday 24 Oct 2014 (Local Time) from CYQR Reporting Station
Few Clouds Few Clouds  
Wind Chill: 54°   Ceiling: Unl
Heat Index: 54°   Visibility: 15mi
Dew Point: 32°   Wind: 18mph
Humidity: 44%   Direction: 280°W
Pressure: 29.89"   Gusts: 28mph
Location:  50.77°N, 103.78°W
Report Text: CYQR 242300Z 28016G24KT 15SM FEW046 FEW270 12/00 A2989 RMK CF1CI1 CF TR CI TR SLP134 DENSITY ALT 1900FT
Loading
Personal Weather Stations






























Interactive Weather Map New forecast layout! Learn more

10-Day Weather Forecast

Advertisements
Track Severe Weather on mobile